sensor_id;sensor_type;location;lat;lon;timestamp;temperature;humidity
28632;DHT22;15818;45.534;5.292;2022-09-09T00:02:43;17.60;99.90
28632;DHT22;15818;45.534;5.292;2022-09-09T00:14:58;17.40;99.90
28632;DHT22;15818;45.534;5.292;2022-09-09T00:17:30;17.40;99.90
28632;DHT22;15818;45.534;5.292;2022-09-09T00:22:38;17.40;99.90
28632;DHT22;15818;45.534;5.292;2022-09-09T00:25:19;17.50;99.90
28632;DHT22;15818;45.534;5.292;2022-09-09T00:27:49;17.50;99.90
28632;DHT22;15818;45.534;5.292;2022-09-09T00:30:24;17.40;99.90
28632;DHT22;15818;45.534;5.292;2022-09-09T00:32:55;17.40;99.90
28632;DHT22;15818;45.534;5.292;2022-09-09T00:35:36;17.30;99.90
28632;DHT22;15818;45.534;5.292;2022-09-09T00:41:54;16.90;99.90
28632;DHT22;15818;45.534;5.292;2022-09-09T00:44:33;16.90;99.90
28632;DHT22;15818;45.534;5.292;2022-09-09T00:47:12;17.10;99.90
28632;DHT22;15818;45.534;5.292;2022-09-09T00:57:36;16.60;99.90
28632;DHT22;15818;45.534;5.292;2022-09-09T01:00:24;16.30;99.90
28632;DHT22;15818;45.534;5.292;2022-09-09T01:07:47;16.30;99.90
28632;DHT22;15818;45.534;5.292;2022-09-09T01:10:44;16.20;99.90
28632;DHT22;15818;45.534;5.292;2022-09-09T01:13:35;16.20;99.90
28632;DHT22;15818;45.534;5.292;2022-09-09T01:16:04;16.30;99.90
28632;DHT22;15818;45.534;5.292;2022-09-09T01:18:51;16.30;99.90
28632;DHT22;15818;45.534;5.292;2022-09-09T01:26:44;16.10;99.90
28632;DHT22;15818;45.534;5.292;2022-09-09T01:29:14;16.10;99.90
28632;DHT22;15818;45.534;5.292;2022-09-09T01:34:18;16.20;99.90
28632;DHT22;15818;45.534;5.292;2022-09-09T01:39:18;16.50;99.90
28632;DHT22;15818;45.534;5.292;2022-09-09T01:41:45;16.50;99.90
28632;DHT22;15818;45.534;5.292;2022-09-09T01:44:11;16.70;99.90
28632;DHT22;15818;45.534;5.292;2022-09-09T01:46:37;16.80;99.90
28632;DHT22;15818;45.534;5.292;2022-09-09T01:49:05;16.70;99.90
28632;DHT22;15818;45.534;5.292;2022-09-09T01:51:33;16.70;99.90
28632;DHT22;15818;45.534;5.292;2022-09-09T01:53:59;16.60;99.90
28632;DHT22;15818;45.534;5.292;2022-09-09T02:04:48;15.90;99.90
28632;DHT22;15818;45.534;5.292;2022-09-09T02:10:23;15.80;99.90
28632;DHT22;15818;45.534;5.292;2022-09-09T02:13:12;15.70;99.90
28632;DHT22;15818;45.534;5.292;2022-09-09T02:18:04;15.70;99.90
28632;DHT22;15818;45.534;5.292;2022-09-09T02:20:34;16.00;99.90
28632;DHT22;15818;45.534;5.292;2022-09-09T02:23:03;16.00;99.90
28632;DHT22;15818;45.534;5.292;2022-09-09T02:25:29;15.90;99.90
28632;DHT22;15818;45.534;5.292;2022-09-09T02:27:55;15.90;99.90
28632;DHT22;15818;45.534;5.292;2022-09-09T02:30:24;16.00;99.90
28632;DHT22;15818;45.534;5.292;2022-09-09T02:32:52;16.00;99.90
28632;DHT22;15818;45.534;5.292;2022-09-09T02:35:23;16.00;99.90
28632;DHT22;15818;45.534;5.292;2022-09-09T02:37:52;16.10;99.90
28632;DHT22;15818;45.534;5.292;2022-09-09T02:40:19;16.20;99.90
28632;DHT22;15818;45.534;5.292;2022-09-09T02:42:48;16.10;99.90
28632;DHT22;15818;45.534;5.292;2022-09-09T02:45:20;16.20;99.90
28632;DHT22;15818;45.534;5.292;2022-09-09T02:47:57;16.20;99.90
28632;DHT22;15818;45.534;5.292;2022-09-09T02:50:33;16.20;99.90
28632;DHT22;15818;45.534;5.292;2022-09-09T02:56:05;16.00;99.90
28632;DHT22;15818;45.534;5.292;2022-09-09T02:58:30;16.00;99.90
28632;DHT22;15818;45.534;5.292;2022-09-09T03:00:56;16.00;99.90
28632;DHT22;15818;45.534;5.292;2022-09-09T03:03:23;16.00;99.90
28632;DHT22;15818;45.534;5.292;2022-09-09T03:05:49;16.00;99.90
28632;DHT22;15818;45.534;5.292;2022-09-09T03:08:15;15.90;99.90
28632;DHT22;15818;45.534;5.292;2022-09-09T03:10:40;15.90;99.90
28632;DHT22;15818;45.534;5.292;2022-09-09T03:13:06;15.80;99.90
28632;DHT22;15818;45.534;5.292;2022-09-09T03:15:33;15.90;99.90
28632;DHT22;15818;45.534;5.292;2022-09-09T03:17:59;15.60;99.90
28632;DHT22;15818;45.534;5.292;2022-09-09T03:20:27;15.40;99.90
28632;DHT22;15818;45.534;5.292;2022-09-09T03:22:56;15.30;99.90
28632;DHT22;15818;45.534;5.292;2022-09-09T03:25:23;15.20;99.90
28632;DHT22;15818;45.534;5.292;2022-09-09T03:27:52;15.20;99.90
28632;DHT22;15818;45.534;5.292;2022-09-09T03:30:25;15.20;99.90
28632;DHT22;15818;45.534;5.292;2022-09-09T03:32:51;15.20;99.90
28632;DHT22;15818;45.534;5.292;2022-09-09T03:35:17;15.20;99.90
28632;DHT22;15818;45.534;5.292;2022-09-09T03:37:43;15.10;99.90
28632;DHT22;15818;45.534;5.292;2022-09-09T03:40:09;15.20;99.90
28632;DHT22;15818;45.534;5.292;2022-09-09T03:42:36;15.20;99.90
28632;DHT22;15818;45.534;5.292;2022-09-09T03:45:07;15.10;99.90
28632;DHT22;15818;45.534;5.292;2022-09-09T03:47:34;15.10;99.90
28632;DHT22;15818;45.534;5.292;2022-09-09T03:50:00;15.10;99.90
28632;DHT22;15818;45.534;5.292;2022-09-09T03:52:26;15.00;99.90
28632;DHT22;15818;45.534;5.292;2022-09-09T03:54:53;15.00;99.90
28632;DHT22;15818;45.534;5.292;2022-09-09T03:57:19;15.10;99.90
28632;DHT22;15818;45.534;5.292;2022-09-09T03:59:45;15.20;99.90
28632;DHT22;15818;45.534;5.292;2022-09-09T04:02:11;15.00;99.90
28632;DHT22;15818;45.534;5.292;2022-09-09T04:04:37;15.10;99.90
28632;DHT22;15818;45.534;5.292;2022-09-09T04:07:02;15.20;99.90
28632;DHT22;15818;45.534;5.292;2022-09-09T04:09:28;15.20;99.90
28632;DHT22;15818;45.534;5.292;2022-09-09T04:11:54;15.20;99.90
28632;DHT22;15818;45.534;5.292;2022-09-09T04:14:20;15.20;99.90
28632;DHT22;15818;45.534;5.292;2022-09-09T04:16:46;15.20;99.90
28632;DHT22;15818;45.534;5.292;2022-09-09T04:19:12;15.20;99.90
28632;DHT22;15818;45.534;5.292;2022-09-09T04:21:39;15.20;99.90
28632;DHT22;15818;45.534;5.292;2022-09-09T04:24:08;15.20;99.90
28632;DHT22;15818;45.534;5.292;2022-09-09T04:26:36;15.20;99.90
28632;DHT22;15818;45.534;5.292;2022-09-09T04:29:03;15.00;99.90
28632;DHT22;15818;45.534;5.292;2022-09-09T04:31:29;14.90;99.90
28632;DHT22;15818;45.534;5.292;2022-09-09T04:33:55;14.80;99.90
28632;DHT22;15818;45.534;5.292;2022-09-09T04:36:21;14.60;99.90
28632;DHT22;15818;45.534;5.292;2022-09-09T04:38:47;14.50;99.90
28632;DHT22;15818;45.534;5.292;2022-09-09T04:41:15;14.50;99.90
28632;DHT22;15818;45.534;5.292;2022-09-09T04:43:42;14.50;99.90
28632;DHT22;15818;45.534;5.292;2022-09-09T04:46:08;14.50;99.90
28632;DHT22;15818;45.534;5.292;2022-09-09T04:48:34;14.60;99.90
28632;DHT22;15818;45.534;5.292;2022-09-09T04:51:01;14.70;99.90
28632;DHT22;15818;45.534;5.292;2022-09-09T04:53:28;14.80;99.90
28632;DHT22;15818;45.534;5.292;2022-09-09T04:58:29;15.00;99.90
28632;DHT22;15818;45.534;5.292;2022-09-09T05:00:54;15.10;99.90
28632;DHT22;15818;45.534;5.292;2022-09-09T05:03:20;15.20;99.90
28632;DHT22;15818;45.534;5.292;2022-09-09T05:05:45;15.20;99.90
28632;DHT22;15818;45.534;5.292;2022-09-09T05:08:11;15.20;99.90
28632;DHT22;15818;45.534;5.292;2022-09-09T05:10:38;15.20;99.90
28632;DHT22;15818;45.534;5.292;2022-09-09T05:13:04;15.20;99.90
28632;DHT22;15818;45.534;5.292;2022-09-09T05:15:30;15.20;99.90
28632;DHT22;15818;45.534;5.292;2022-09-09T05:17:58;15.20;99.90
28632;DHT22;15818;45.534;5.292;2022-09-09T05:20:24;15.20;99.90
28632;DHT22;15818;45.534;5.292;2022-09-09T05:22:52;15.20;99.90
28632;DHT22;15818;45.534;5.292;2022-09-09T05:25:18;15.20;99.90
28632;DHT22;15818;45.534;5.292;2022-09-09T05:27:44;15.20;99.90
28632;DHT22;15818;45.534;5.292;2022-09-09T05:30:10;15.20;99.90
28632;DHT22;15818;45.534;5.292;2022-09-09T05:32:36;15.10;99.90
28632;DHT22;15818;45.534;5.292;2022-09-09T05:35:02;15.20;99.90
28632;DHT22;15818;45.534;5.292;2022-09-09T05:37:28;15.20;99.90
28632;DHT22;15818;45.534;5.292;2022-09-09T05:39:55;15.10;99.90
28632;DHT22;15818;45.534;5.292;2022-09-09T05:42:21;15.10;99.90
28632;DHT22;15818;45.534;5.292;2022-09-09T05:44:46;15.20;99.90
28632;DHT22;15818;45.534;5.292;2022-09-09T05:47:12;15.20;99.90
28632;DHT22;15818;45.534;5.292;2022-09-09T05:49:38;15.30;99.90
28632;DHT22;15818;45.534;5.292;2022-09-09T05:52:03;15.40;99.90
28632;DHT22;15818;45.534;5.292;2022-09-09T05:54:29;15.50;99.90
28632;DHT22;15818;45.534;5.292;2022-09-09T05:56:55;15.60;99.90
28632;DHT22;15818;45.534;5.292;2022-09-09T05:59:21;15.70;99.90
28632;DHT22;15818;45.534;5.292;2022-09-09T06:01:48;15.70;99.90
28632;DHT22;15818;45.534;5.292;2022-09-09T06:04:14;15.70;99.90
28632;DHT22;15818;45.534;5.292;2022-09-09T06:06:39;15.70;99.90
28632;DHT22;15818;45.534;5.292;2022-09-09T06:09:08;15.80;99.90
28632;DHT22;15818;45.534;5.292;2022-09-09T06:11:37;15.80;99.90
28632;DHT22;15818;45.534;5.292;2022-09-09T06:14:04;15.70;99.90
28632;DHT22;15818;45.534;5.292;2022-09-09T06:16:31;15.70;99.90
28632;DHT22;15818;45.534;5.292;2022-09-09T06:19:00;15.60;99.90
28632;DHT22;15818;45.534;5.292;2022-09-09T06:21:35;15.60;99.90
28632;DHT22;15818;45.534;5.292;2022-09-09T06:24:04;15.50;99.90
28632;DHT22;15818;45.534;5.292;2022-09-09T06:26:40;15.50;99.90
28632;DHT22;15818;45.534;5.292;2022-09-09T06:29:06;15.40;99.90
28632;DHT22;15818;45.534;5.292;2022-09-09T06:31:34;15.50;99.90
28632;DHT22;15818;45.534;5.292;2022-09-09T06:34:04;15.50;99.90
28632;DHT22;15818;45.534;5.292;2022-09-09T06:36:35;15.50;99.90
28632;DHT22;15818;45.534;5.292;2022-09-09T06:39:02;15.50;99.90
28632;DHT22;15818;45.534;5.292;2022-09-09T06:41:28;15.80;99.90
28632;DHT22;15818;45.534;5.292;2022-09-09T06:43:55;16.00;99.90
28632;DHT22;15818;45.534;5.292;2022-09-09T06:46:28;16.50;99.90
28632;DHT22;15818;45.534;5.292;2022-09-09T06:48:56;16.90;99.90
28632;DHT22;15818;45.534;5.292;2022-09-09T06:51:24;17.10;99.90
28632;DHT22;15818;45.534;5.292;2022-09-09T06:53:53;17.10;99.90
28632;DHT22;15818;45.534;5.292;2022-09-09T06:56:41;17.30;99.90
28632;DHT22;15818;45.534;5.292;2022-09-09T06:59:09;17.30;99.90
28632;DHT22;15818;45.534;5.292;2022-09-09T07:01:37;17.30;99.90
28632;DHT22;15818;45.534;5.292;2022-09-09T07:04:04;17.40;99.90
28632;DHT22;15818;45.534;5.292;2022-09-09T07:06:35;17.50;99.90
28632;DHT22;15818;45.534;5.292;2022-09-09T07:09:03;17.50;99.90
28632;DHT22;15818;45.534;5.292;2022-09-09T07:11:37;17.50;99.90
28632;DHT22;15818;45.534;5.292;2022-09-09T07:14:03;17.50;99.90
28632;DHT22;15818;45.534;5.292;2022-09-09T07:16:28;17.60;99.90
28632;DHT22;15818;45.534;5.292;2022-09-09T07:18:55;17.60;99.90
28632;DHT22;15818;45.534;5.292;2022-09-09T07:21:25;17.60;99.90
28632;DHT22;15818;45.534;5.292;2022-09-09T07:23:51;17.60;99.90
28632;DHT22;15818;45.534;5.292;2022-09-09T07:26:19;17.60;99.90
28632;DHT22;15818;45.534;5.292;2022-09-09T07:28:46;17.70;99.90
28632;DHT22;15818;45.534;5.292;2022-09-09T07:31:17;17.80;99.90
28632;DHT22;15818;45.534;5.292;2022-09-09T07:33:44;17.90;99.90
28632;DHT22;15818;45.534;5.292;2022-09-09T07:38:40;18.00;99.90
28632;DHT22;15818;45.534;5.292;2022-09-09T07:41:08;18.00;99.90
28632;DHT22;15818;45.534;5.292;2022-09-09T07:43:41;18.10;99.90
28632;DHT22;15818;45.534;5.292;2022-09-09T07:46:08;18.20;99.90
28632;DHT22;15818;45.534;5.292;2022-09-09T07:48:34;18.30;99.90
28632;DHT22;15818;45.534;5.292;2022-09-09T07:51:10;18.40;99.90
28632;DHT22;15818;45.534;5.292;2022-09-09T07:53:37;18.50;99.90
28632;DHT22;15818;45.534;5.292;2022-09-09T07:56:08;18.40;99.90
28632;DHT22;15818;45.534;5.292;2022-09-09T07:58:36;18.60;99.90
28632;DHT22;15818;45.534;5.292;2022-09-09T08:01:10;18.70;99.90
28632;DHT22;15818;45.534;5.292;2022-09-09T08:03:37;18.70;99.90
28632;DHT22;15818;45.534;5.292;2022-09-09T08:06:06;18.60;99.90
28632;DHT22;15818;45.534;5.292;2022-09-09T08:08:36;18.80;99.90
28632;DHT22;15818;45.534;5.292;2022-09-09T08:11:07;18.80;99.90
28632;DHT22;15818;45.534;5.292;2022-09-09T08:13:38;18.80;99.90
28632;DHT22;15818;45.534;5.292;2022-09-09T08:16:15;18.80;99.90
28632;DHT22;15818;45.534;5.292;2022-09-09T08:18:42;18.80;99.90
28632;DHT22;15818;45.534;5.292;2022-09-09T08:21:12;18.80;99.90
28632;DHT22;15818;45.534;5.292;2022-09-09T08:23:40;19.00;99.90
28632;DHT22;15818;45.534;5.292;2022-09-09T08:28:36;19.40;99.90
28632;DHT22;15818;45.534;5.292;2022-09-09T08:31:15;19.20;99.90
28632;DHT22;15818;45.534;5.292;2022-09-09T08:33:43;19.40;99.90
28632;DHT22;15818;45.534;5.292;2022-09-09T08:36:22;19.80;99.90
28632;DHT22;15818;45.534;5.292;2022-09-09T08:38:49;19.20;99.90
28632;DHT22;15818;45.534;5.292;2022-09-09T08:53:14;20.20;99.90
28632;DHT22;15818;45.534;5.292;2022-09-09T08:58:14;19.10;99.90
28632;DHT22;15818;45.534;5.292;2022-09-09T09:03:38;21.30;99.90
28632;DHT22;15818;45.534;5.292;2022-09-09T09:09:11;22.20;99.90
28632;DHT22;15818;45.534;5.292;2022-09-09T09:11:53;21.00;99.90
28632;DHT22;15818;45.534;5.292;2022-09-09T09:14:23;21.30;99.90
28632;DHT22;15818;45.534;5.292;2022-09-09T09:19:18;22.00;99.90
28632;DHT22;15818;45.534;5.292;2022-09-09T09:24:47;21.80;99.90
28632;DHT22;15818;45.534;5.292;2022-09-09T09:27:25;22.40;99.90
28632;DHT22;15818;45.534;5.292;2022-09-09T09:29:55;22.40;99.90
28632;DHT22;15818;45.534;5.292;2022-09-09T09:32:24;22.40;99.90
28632;DHT22;15818;45.534;5.292;2022-09-09T09:34:57;22.80;99.90
28632;DHT22;15818;45.534;5.292;2022-09-09T09:37:32;23.60;99.90
28632;DHT22;15818;45.534;5.292;2022-09-09T09:42:52;22.40;99.90
28632;DHT22;15818;45.534;5.292;2022-09-09T09:45:42;21.60;99.90
28632;DHT22;15818;45.534;5.292;2022-09-09T09:48:12;20.50;99.90
28632;DHT22;15818;45.534;5.292;2022-09-09T09:51:00;20.70;99.90
28632;DHT22;15818;45.534;5.292;2022-09-09T09:53:30;22.30;99.90
28632;DHT22;15818;45.534;5.292;2022-09-09T09:56:09;23.30;99.90
28632;DHT22;15818;45.534;5.292;2022-09-09T10:01:23;25.70;99.90
28632;DHT22;15818;45.534;5.292;2022-09-09T10:03:52;26.30;99.90
28632;DHT22;15818;45.534;5.292;2022-09-09T10:06:29;27.10;99.90
28632;DHT22;15818;45.534;5.292;2022-09-09T10:08:55;27.40;99.90
28632;DHT22;15818;45.534;5.292;2022-09-09T10:14:28;26.80;99.90
28632;DHT22;15818;45.534;5.292;2022-09-09T10:17:05;27.10;99.90
28632;DHT22;15818;45.534;5.292;2022-09-09T10:19:36;28.20;99.90
28632;DHT22;15818;45.534;5.292;2022-09-09T10:22:12;27.00;99.90
28632;DHT22;15818;45.534;5.292;2022-09-09T10:33:13;27.30;99.90
28632;DHT22;15818;45.534;5.292;2022-09-09T10:38:29;28.60;99.90
28632;DHT22;15818;45.534;5.292;2022-09-09T10:49:26;27.70;99.90
28632;DHT22;15818;45.534;5.292;2022-09-09T10:57:31;24.20;99.90
28632;DHT22;15818;45.534;5.292;2022-09-09T11:00:21;27.80;99.90
28632;DHT22;15818;45.534;5.292;2022-09-09T11:02:57;28.00;99.90
28632;DHT22;15818;45.534;5.292;2022-09-09T11:05:31;26.80;99.90
28632;DHT22;15818;45.534;5.292;2022-09-09T11:08:14;25.90;99.90
28632;DHT22;15818;45.534;5.292;2022-09-09T11:13:26;27.80;99.90
28632;DHT22;15818;45.534;5.292;2022-09-09T11:16:10;26.80;99.90
28632;DHT22;15818;45.534;5.292;2022-09-09T11:18:41;27.70;99.90
28632;DHT22;15818;45.534;5.292;2022-09-09T11:21:18;27.40;99.90
28632;DHT22;15818;45.534;5.292;2022-09-09T11:24:21;26.70;99.90
28632;DHT22;15818;45.534;5.292;2022-09-09T11:26:58;27.00;99.90
28632;DHT22;15818;45.534;5.292;2022-09-09T11:30:21;26.70;99.90
28632;DHT22;15818;45.534;5.292;2022-09-09T11:32:47;25.30;99.90
28632;DHT22;15818;45.534;5.292;2022-09-09T11:38:46;25.90;99.90
28632;DHT22;15818;45.534;5.292;2022-09-09T11:41:13;26.20;99.90
28632;DHT22;15818;45.534;5.292;2022-09-09T11:44:08;26.70;99.90
28632;DHT22;15818;45.534;5.292;2022-09-09T11:46:37;26.70;99.90
28632;DHT22;15818;45.534;5.292;2022-09-09T11:49:06;26.10;99.90
28632;DHT22;15818;45.534;5.292;2022-09-09T11:51:47;25.40;99.90
28632;DHT22;15818;45.534;5.292;2022-09-09T11:54:31;25.30;99.90
28632;DHT22;15818;45.534;5.292;2022-09-09T11:56:57;25.00;99.90
28632;DHT22;15818;45.534;5.292;2022-09-09T12:02:11;25.60;99.90
28632;DHT22;15818;45.534;5.292;2022-09-09T12:05:02;26.70;99.90
28632;DHT22;15818;45.534;5.292;2022-09-09T12:07:32;27.90;99.90
28632;DHT22;15818;45.534;5.292;2022-09-09T12:12:47;28.00;98.60
28632;DHT22;15818;45.534;5.292;2022-09-09T12:15:28;27.30;98.80
28632;DHT22;15818;45.534;5.292;2022-09-09T12:17:57;28.00;98.20
28632;DHT22;15818;45.534;5.292;2022-09-09T12:20:38;28.20;97.30
28632;DHT22;15818;45.534;5.292;2022-09-09T12:32:06;28.70;97.90
28632;DHT22;15818;45.534;5.292;2022-09-09T12:34:57;27.70;98.10
28632;DHT22;15818;45.534;5.292;2022-09-09T12:42:22;27.70;96.90
28632;DHT22;15818;45.534;5.292;2022-09-09T12:44:56;28.10;96.40
28632;DHT22;15818;45.534;5.292;2022-09-09T12:47:45;27.60;96.50
28632;DHT22;15818;45.534;5.292;2022-09-09T12:50:23;27.60;97.30
28632;DHT22;15818;45.534;5.292;2022-09-09T12:53:03;27.90;98.40
28632;DHT22;15818;45.534;5.292;2022-09-09T12:55:36;28.60;96.80
28632;DHT22;15818;45.534;5.292;2022-09-09T12:58:04;27.70;98.50
28632;DHT22;15818;45.534;5.292;2022-09-09T13:00:31;26.20;97.60
28632;DHT22;15818;45.534;5.292;2022-09-09T13:02:59;26.60;97.50
28632;DHT22;15818;45.534;5.292;2022-09-09T13:05:36;26.90;97.00
28632;DHT22;15818;45.534;5.292;2022-09-09T13:08:06;26.70;98.80
28632;DHT22;15818;45.534;5.292;2022-09-09T13:10:47;26.50;98.60
28632;DHT22;15818;45.534;5.292;2022-09-09T13:13:15;26.20;97.90
28632;DHT22;15818;45.534;5.292;2022-09-09T13:16:34;25.50;99.10
28632;DHT22;15818;45.534;5.292;2022-09-09T13:18:37;25.50;99.80
28632;DHT22;15818;45.534;5.292;2022-09-09T13:21:05;24.90;99.10
28632;DHT22;15818;45.534;5.292;2022-09-09T13:23:36;24.80;99.90
28632;DHT22;15818;45.534;5.292;2022-09-09T13:26:03;25.20;99.90
28632;DHT22;15818;45.534;5.292;2022-09-09T13:28:32;24.70;98.60
28632;DHT22;15818;45.534;5.292;2022-09-09T13:31:05;24.60;99.90
28632;DHT22;15818;45.534;5.292;2022-09-09T13:33:43;24.70;99.90
28632;DHT22;15818;45.534;5.292;2022-09-09T13:36:11;25.40;99.90
28632;DHT22;15818;45.534;5.292;2022-09-09T13:41:21;25.10;99.90
28632;DHT22;15818;45.534;5.292;2022-09-09T13:43:48;24.90;99.80
28632;DHT22;15818;45.534;5.292;2022-09-09T13:46:33;24.60;99.90
28632;DHT22;15818;45.534;5.292;2022-09-09T13:49:22;24.10;99.90
28632;DHT22;15818;45.534;5.292;2022-09-09T13:51:50;24.20;99.90
28632;DHT22;15818;45.534;5.292;2022-09-09T13:54:19;24.20;99.90
28632;DHT22;15818;45.534;5.292;2022-09-09T13:56:45;24.10;99.80
28632;DHT22;15818;45.534;5.292;2022-09-09T13:59:17;24.10;99.90
28632;DHT22;15818;45.534;5.292;2022-09-09T14:01:45;24.10;99.80
28632;DHT22;15818;45.534;5.292;2022-09-09T14:04:11;24.00;99.90
28632;DHT22;15818;45.534;5.292;2022-09-09T14:06:38;23.90;99.90
28632;DHT22;15818;45.534;5.292;2022-09-09T14:09:11;24.00;99.90
28632;DHT22;15818;45.534;5.292;2022-09-09T14:11:37;24.00;99.90
28632;DHT22;15818;45.534;5.292;2022-09-09T14:14:03;23.90;99.80
28632;DHT22;15818;45.534;5.292;2022-09-09T14:16:30;24.10;99.90
28632;DHT22;15818;45.534;5.292;2022-09-09T14:18:55;24.00;99.90
28632;DHT22;15818;45.534;5.292;2022-09-09T14:21:25;23.90;99.90
28632;DHT22;15818;45.534;5.292;2022-09-09T14:23:51;23.90;99.90
28632;DHT22;15818;45.534;5.292;2022-09-09T14:26:21;23.90;99.90
28632;DHT22;15818;45.534;5.292;2022-09-09T14:28:48;24.00;99.90
28632;DHT22;15818;45.534;5.292;2022-09-09T14:31:13;23.60;99.80
28632;DHT22;15818;45.534;5.292;2022-09-09T14:33:40;23.50;98.80
28632;DHT22;15818;45.534;5.292;2022-09-09T14:36:06;24.10;99.70
28632;DHT22;15818;45.534;5.292;2022-09-09T14:38:36;24.30;98.10
28632;DHT22;15818;45.534;5.292;2022-09-09T14:41:12;24.20;99.30
28632;DHT22;15818;45.534;5.292;2022-09-09T14:43:39;24.10;99.30
28632;DHT22;15818;45.534;5.292;2022-09-09T14:46:09;24.00;99.20
28632;DHT22;15818;45.534;5.292;2022-09-09T14:48:36;24.30;99.90
28632;DHT22;15818;45.534;5.292;2022-09-09T14:51:10;24.70;99.40
28632;DHT22;15818;45.534;5.292;2022-09-09T14:53:36;24.40;98.50
28632;DHT22;15818;45.534;5.292;2022-09-09T14:56:14;24.50;98.60
28632;DHT22;15818;45.534;5.292;2022-09-09T14:58:40;24.10;99.00
28632;DHT22;15818;45.534;5.292;2022-09-09T15:01:08;24.00;99.80
28632;DHT22;15818;45.534;5.292;2022-09-09T15:03:38;24.60;99.20
28632;DHT22;15818;45.534;5.292;2022-09-09T15:06:08;24.60;98.70
28632;DHT22;15818;45.534;5.292;2022-09-09T15:08:39;24.50;98.30
28632;DHT22;15818;45.534;5.292;2022-09-09T15:11:06;24.60;98.90
28632;DHT22;15818;45.534;5.292;2022-09-09T15:13:36;24.90;98.40
28632;DHT22;15818;45.534;5.292;2022-09-09T15:16:10;25.10;98.60
28632;DHT22;15818;45.534;5.292;2022-09-09T15:18:36;25.10;98.10
28632;DHT22;15818;45.534;5.292;2022-09-09T15:21:05;25.20;97.70
28632;DHT22;15818;45.534;5.292;2022-09-09T15:23:32;24.90;97.90
28632;DHT22;15818;45.534;5.292;2022-09-09T15:25:58;24.50;98.50
28632;DHT22;15818;45.534;5.292;2022-09-09T15:28:24;24.30;98.20
28632;DHT22;15818;45.534;5.292;2022-09-09T15:30:50;24.00;99.80
28632;DHT22;15818;45.534;5.292;2022-09-09T15:33:18;23.60;99.30
28632;DHT22;15818;45.534;5.292;2022-09-09T15:35:43;23.70;99.50
28632;DHT22;15818;45.534;5.292;2022-09-09T15:38:09;23.90;99.40
28632;DHT22;15818;45.534;5.292;2022-09-09T15:40:35;23.80;99.90
28632;DHT22;15818;45.534;5.292;2022-09-09T15:43:01;23.70;99.40
28632;DHT22;15818;45.534;5.292;2022-09-09T15:45:28;24.10;99.70
28632;DHT22;15818;45.534;5.292;2022-09-09T15:47:59;24.10;99.10
28632;DHT22;15818;45.534;5.292;2022-09-09T15:50:25;23.90;99.90
28632;DHT22;15818;45.534;5.292;2022-09-09T15:52:51;24.00;99.60
28632;DHT22;15818;45.534;5.292;2022-09-09T15:55:19;23.80;99.90
28632;DHT22;15818;45.534;5.292;2022-09-09T15:57:49;23.90;99.90
28632;DHT22;15818;45.534;5.292;2022-09-09T16:00:17;24.00;99.90
28632;DHT22;15818;45.534;5.292;2022-09-09T16:02:43;23.90;99.90
28632;DHT22;15818;45.534;5.292;2022-09-09T16:05:10;23.70;99.90
28632;DHT22;15818;45.534;5.292;2022-09-09T16:07:36;23.50;99.90
28632;DHT22;15818;45.534;5.292;2022-09-09T16:10:02;23.50;99.90
28632;DHT22;15818;45.534;5.292;2022-09-09T16:12:28;23.60;99.90
28632;DHT22;15818;45.534;5.292;2022-09-09T16:14:54;23.60;99.90
28632;DHT22;15818;45.534;5.292;2022-09-09T16:17:20;23.60;99.90
28632;DHT22;15818;45.534;5.292;2022-09-09T16:19:46;23.80;99.90
28632;DHT22;15818;45.534;5.292;2022-09-09T16:22:12;23.90;99.90
28632;DHT22;15818;45.534;5.292;2022-09-09T16:24:40;23.80;99.90
28632;DHT22;15818;45.534;5.292;2022-09-09T16:27:06;23.60;99.90
28632;DHT22;15818;45.534;5.292;2022-09-09T16:29:32;23.40;99.90
28632;DHT22;15818;45.534;5.292;2022-09-09T16:31:58;23.10;99.90
28632;DHT22;15818;45.534;5.292;2022-09-09T16:34:25;22.80;99.90
28632;DHT22;15818;45.534;5.292;2022-09-09T16:36:51;22.70;99.90
28632;DHT22;15818;45.534;5.292;2022-09-09T16:39:19;23.00;99.90
28632;DHT22;15818;45.534;5.292;2022-09-09T16:41:46;23.10;99.90
28632;DHT22;15818;45.534;5.292;2022-09-09T16:44:17;23.10;99.90
28632;DHT22;15818;45.534;5.292;2022-09-09T16:46:44;23.10;99.90
28632;DHT22;15818;45.534;5.292;2022-09-09T16:49:13;22.90;99.90
28632;DHT22;15818;45.534;5.292;2022-09-09T16:51:49;23.00;99.90
28632;DHT22;15818;45.534;5.292;2022-09-09T16:54:16;23.10;99.90
28632;DHT22;15818;45.534;5.292;2022-09-09T16:56:44;23.10;99.90
28632;DHT22;15818;45.534;5.292;2022-09-09T16:59:16;22.80;99.90
28632;DHT22;15818;45.534;5.292;2022-09-09T17:01:43;22.60;99.90
28632;DHT22;15818;45.534;5.292;2022-09-09T17:04:15;22.50;99.90
28632;DHT22;15818;45.534;5.292;2022-09-09T17:06:46;22.40;99.90
28632;DHT22;15818;45.534;5.292;2022-09-09T17:09:13;22.50;99.90
28632;DHT22;15818;45.534;5.292;2022-09-09T17:11:39;22.40;99.90
28632;DHT22;15818;45.534;5.292;2022-09-09T17:14:07;22.40;99.90
28632;DHT22;15818;45.534;5.292;2022-09-09T17:16:35;22.40;99.90
28632;DHT22;15818;45.534;5.292;2022-09-09T17:19:02;22.40;99.90
28632;DHT22;15818;45.534;5.292;2022-09-09T17:21:29;22.40;99.90
28632;DHT22;15818;45.534;5.292;2022-09-09T17:23:56;22.40;99.90
28632;DHT22;15818;45.534;5.292;2022-09-09T17:26:27;22.30;99.90
28632;DHT22;15818;45.534;5.292;2022-09-09T17:28:54;22.20;99.90
28632;DHT22;15818;45.534;5.292;2022-09-09T17:31:21;22.10;99.90
28632;DHT22;15818;45.534;5.292;2022-09-09T17:33:49;22.10;99.90
28632;DHT22;15818;45.534;5.292;2022-09-09T17:36:17;21.90;99.90
28632;DHT22;15818;45.534;5.292;2022-09-09T17:38:43;21.90;99.90
28632;DHT22;15818;45.534;5.292;2022-09-09T17:41:15;21.90;99.90
28632;DHT22;15818;45.534;5.292;2022-09-09T17:43:41;21.90;99.90
28632;DHT22;15818;45.534;5.292;2022-09-09T17:46:16;21.90;99.90
28632;DHT22;15818;45.534;5.292;2022-09-09T17:48:43;21.80;99.90
28632;DHT22;15818;45.534;5.292;2022-09-09T17:51:15;21.90;99.90
28632;DHT22;15818;45.534;5.292;2022-09-09T17:53:46;21.90;99.90
28632;DHT22;15818;45.534;5.292;2022-09-09T17:56:14;21.70;99.90
28632;DHT22;15818;45.534;5.292;2022-09-09T17:58:42;21.60;99.90
28632;DHT22;15818;45.534;5.292;2022-09-09T18:01:10;21.50;99.90
28632;DHT22;15818;45.534;5.292;2022-09-09T18:03:38;21.40;99.90
28632;DHT22;15818;45.534;5.292;2022-09-09T18:06:07;21.40;99.90
28632;DHT22;15818;45.534;5.292;2022-09-09T18:08:33;21.50;99.90
28632;DHT22;15818;45.534;5.292;2022-09-09T18:11:00;21.30;99.90
28632;DHT22;15818;45.534;5.292;2022-09-09T18:13:26;21.00;99.90
28632;DHT22;15818;45.534;5.292;2022-09-09T18:15:52;20.80;99.90
28632;DHT22;15818;45.534;5.292;2022-09-09T18:18:18;20.80;99.90
28632;DHT22;15818;45.534;5.292;2022-09-09T18:20:46;20.70;99.90